createdAt,value
2019-06-10T00:00:17.046Z,17.35
2019-06-10T00:02:46.976Z,17.41
2019-06-10T00:05:16.871Z,17.43
2019-06-10T00:07:46.929Z,17.49
2019-06-10T00:10:18.469Z,17.24
2019-06-10T00:12:51.753Z,17.04
2019-06-10T00:15:21.641Z,17.03
2019-06-10T00:18:07.049Z,17.03
2019-06-10T00:20:23.260Z,17.13
2019-06-10T00:22:53.077Z,17.30
2019-06-10T00:25:22.968Z,17.23
2019-06-10T00:27:52.885Z,17.33
2019-06-10T00:30:22.859Z,17.42
2019-06-10T00:32:52.856Z,17.41
2019-06-10T00:35:22.752Z,17.37
2019-06-10T00:37:52.573Z,17.31
2019-06-10T00:40:22.463Z,17.25
2019-06-10T00:42:52.376Z,17.15
2019-06-10T00:45:22.351Z,17.06
2019-06-10T00:48:08.540Z,16.92
2019-06-10T00:50:23.846Z,16.86
2019-06-10T00:52:53.668Z,17.10
2019-06-10T00:55:23.558Z,17.10
2019-06-10T00:57:53.524Z,17.04
2019-06-10T01:00:25.647Z,17.07
2019-06-10T01:02:55.134Z,17.07
2019-06-10T01:05:25.025Z,16.90
2019-06-10T01:07:56.495Z,16.97
2019-06-10T01:10:26.659Z,16.99
2019-06-10T01:12:56.550Z,16.96
2019-06-10T01:15:26.452Z,17.07
2019-06-10T01:17:56.366Z,16.94
2019-06-10T01:20:26.366Z,16.70
2019-06-10T01:22:56.279Z,16.87
2019-06-10T01:25:26.250Z,17.11
2019-06-10T01:27:56.158Z,16.55
2019-06-10T01:30:27.308Z,16.25
2019-06-10T01:32:57.283Z,16.19
2019-06-10T01:35:27.100Z,16.26
2019-06-10T01:37:56.925Z,16.31
2019-06-10T01:40:26.818Z,16.68
2019-06-10T01:42:57.727Z,16.95
2019-06-10T01:45:27.625Z,17.11
2019-06-10T01:47:57.548Z,16.82
2019-06-10T01:50:27.450Z,16.50
2019-06-10T01:52:57.262Z,16.54
2019-06-10T01:55:27.218Z,16.79
2019-06-10T01:57:57.201Z,16.75
2019-06-10T02:00:34.195Z,16.63
2019-06-10T02:03:04.107Z,16.68
2019-06-10T02:05:34.017Z,16.95
2019-06-10T02:08:04.110Z,17.09
2019-06-10T02:10:34.006Z,16.97
2019-06-10T02:13:04.001Z,16.98
2019-06-10T02:15:33.822Z,17.14
2019-06-10T02:18:03.730Z,17.24
2019-06-10T02:20:33.612Z,17.36
2019-06-10T02:23:03.535Z,17.40
2019-06-10T02:25:33.336Z,16.75
2019-06-10T02:28:03.209Z,16.33
2019-06-10T02:30:44.227Z,16.02
2019-06-10T02:33:04.661Z,15.66
2019-06-10T02:35:44.227Z,15.59
2019-06-10T02:38:06.275Z,15.48
2019-06-10T02:40:36.760Z,15.45
2019-06-10T02:43:07.572Z,15.59
2019-06-10T02:45:37.877Z,15.62
2019-06-10T02:48:08.034Z,15.56
2019-06-10T02:51:07.139Z,15.86
2019-06-10T02:53:37.799Z,15.70
2019-06-10T02:56:09.472Z,15.54
2019-06-10T02:58:40.285Z,15.44
2019-06-10T03:01:14.698Z,15.58
2019-06-10T03:03:48.345Z,15.82
2019-06-10T03:06:15.060Z,15.77
2019-06-10T03:08:45.851Z,16.11
2019-06-10T03:11:16.629Z,16.03
2019-06-10T03:13:47.378Z,15.77
2019-06-10T03:16:25.570Z,15.52
2019-06-10T03:18:54.625Z,15.71
2019-06-10T03:21:25.874Z,15.92
2019-06-10T03:23:55.915Z,15.94
2019-06-10T03:26:25.774Z,16.10
2019-06-10T03:28:55.738Z,16.14
2019-06-10T03:31:35.242Z,16.15
2019-06-10T03:33:57.166Z,16.29
2019-06-10T03:36:27.382Z,16.32
2019-06-10T03:38:57.241Z,16.25
2019-06-10T03:41:28.035Z,16.20
2019-06-10T03:43:57.992Z,16.18
2019-06-10T03:46:28.450Z,15.67
2019-06-10T03:48:58.409Z,15.59
2019-06-10T03:51:28.859Z,15.85
2019-06-10T03:54:02.479Z,15.48
2019-06-10T03:56:32.383Z,15.34
2019-06-10T03:59:02.910Z,15.52
2019-06-10T04:01:34.007Z,16.08
2019-06-10T04:04:04.121Z,16.31
2019-06-10T04:06:34.107Z,16.42
2019-06-10T04:09:05.207Z,16.52
2019-06-10T04:11:35.672Z,16.47
2019-06-10T04:14:06.737Z,16.41
2019-06-10T04:16:36.718Z,16.65
2019-06-10T04:19:06.787Z,16.70
2019-06-10T04:21:36.642Z,16.64
2019-06-10T04:24:06.619Z,16.85
2019-06-10T04:26:36.440Z,16.66
2019-06-10T04:29:06.420Z,16.72
2019-06-10T04:31:36.316Z,16.84
2019-06-10T04:34:06.248Z,16.93
2019-06-10T04:36:36.143Z,16.37
2019-06-10T04:39:07.302Z,16.03
2019-06-10T04:41:37.201Z,16.41
2019-06-10T04:44:07.147Z,16.65
2019-06-10T04:46:37.029Z,16.88
2019-06-10T04:49:07.158Z,17.15
2019-06-10T04:51:37.010Z,17.34
2019-06-10T04:54:06.934Z,17.28
2019-06-10T04:56:36.925Z,17.32
2019-06-10T04:59:06.738Z,17.12
2019-06-10T05:01:36.703Z,17.09
2019-06-10T05:04:06.692Z,17.34
2019-06-10T05:06:36.596Z,17.35
2019-06-10T05:09:07.088Z,17.48
2019-06-10T05:11:36.903Z,17.53
2019-06-10T05:14:06.880Z,17.61
2019-06-10T05:16:36.783Z,17.77
2019-06-10T05:19:06.673Z,17.80
2019-06-10T05:21:36.487Z,17.78
2019-06-10T05:24:06.400Z,17.63
2019-06-10T05:26:36.298Z,17.63
2019-06-10T05:29:06.268Z,17.77
2019-06-10T05:31:36.169Z,17.79
2019-06-10T05:34:06.066Z,17.60
2019-06-10T05:36:35.918Z,17.62
2019-06-10T05:39:07.723Z,17.64
2019-06-10T05:41:37.766Z,17.41
2019-06-10T05:44:07.646Z,16.42
2019-06-10T05:46:37.632Z,15.94
2019-06-10T05:49:07.539Z,15.99
2019-06-10T05:51:37.546Z,15.95
2019-06-10T05:54:07.522Z,16.31
2019-06-10T05:56:37.659Z,16.30
2019-06-10T05:59:07.617Z,16.42
2019-06-10T06:01:38.603Z,16.21
2019-06-10T06:04:08.692Z,16.06
2019-06-10T06:06:41.635Z,16.08
2019-06-10T06:09:12.767Z,16.02
2019-06-10T06:11:43.052Z,15.82
2019-06-10T06:14:13.449Z,15.82
2019-06-10T06:16:43.614Z,16.05
2019-06-10T06:19:13.592Z,16.36
2019-06-10T06:21:47.539Z,16.68
2019-06-10T06:24:15.216Z,16.96
2019-06-10T06:26:45.103Z,17.17
2019-06-10T06:29:15.072Z,17.25
2019-06-10T06:31:45.074Z,17.03
2019-06-10T06:34:14.909Z,17.11
2019-06-10T06:36:44.865Z,17.14
2019-06-10T06:39:14.842Z,16.98
2019-06-10T06:41:44.750Z,17.25
2019-06-10T06:44:14.580Z,17.46
2019-06-10T06:46:44.466Z,17.80
2019-06-10T06:49:15.339Z,17.89
2019-06-10T06:51:54.716Z,17.91
2019-06-10T06:54:16.834Z,17.38
2019-06-10T06:56:46.827Z,17.46
2019-06-10T06:59:16.789Z,17.42
2019-06-10T07:01:46.791Z,17.45
2019-06-10T07:04:16.704Z,17.45
2019-06-10T07:06:46.637Z,17.47
2019-06-10T07:09:17.400Z,17.62
2019-06-10T07:11:47.875Z,17.98
2019-06-10T07:14:20.190Z,18.02
2019-06-10T07:16:52.780Z,18.13
2019-06-10T07:19:22.663Z,18.25
2019-06-10T07:22:08.330Z,18.46
2019-06-10T07:24:24.304Z,18.37
2019-06-10T07:26:54.943Z,19.01
2019-06-10T07:29:25.043Z,19.20
2019-06-10T07:31:54.978Z,19.24
2019-06-10T07:34:24.948Z,19.51
2019-06-10T07:36:54.761Z,20.06
2019-06-10T07:39:24.664Z,20.46
2019-06-10T07:41:54.509Z,20.75
2019-06-10T07:44:24.575Z,20.85
2019-06-10T07:46:54.484Z,21.09
2019-06-10T07:49:24.311Z,21.34
2019-06-10T07:51:54.389Z,21.45
2019-06-10T07:54:24.294Z,21.59
2019-06-10T07:56:54.280Z,21.87
2019-06-10T07:59:24.289Z,21.68
2019-06-10T08:01:55.276Z,21.92
2019-06-10T08:04:26.471Z,21.97
2019-06-10T08:06:56.352Z,21.97
2019-06-10T08:09:26.248Z,22.42
2019-06-10T08:11:56.169Z,22.73
2019-06-10T08:14:26.123Z,22.89
2019-06-10T08:16:55.952Z,23.08
2019-06-10T08:19:34.270Z,22.68
2019-06-10T08:21:57.544Z,22.70
2019-06-10T08:24:27.495Z,23.33
2019-06-10T08:26:57.403Z,23.22
2019-06-10T08:29:27.232Z,23.03
2019-06-10T08:31:57.680Z,22.74
2019-06-10T08:34:27.631Z,22.49
2019-06-10T08:36:57.608Z,22.43
2019-06-10T08:39:27.499Z,22.45
2019-06-10T08:41:57.512Z,22.41
2019-06-10T08:44:27.406Z,22.06
2019-06-10T08:46:57.417Z,22.44
2019-06-10T08:49:27.319Z,22.69
2019-06-10T08:51:57.300Z,22.71
2019-06-10T08:54:27.285Z,22.79
2019-06-10T08:56:57.287Z,22.78
2019-06-10T08:59:27.211Z,23.08
2019-06-10T09:01:57.277Z,23.43
2019-06-10T09:04:29.438Z,23.69
2019-06-10T09:06:58.835Z,24.22
2019-06-10T09:09:28.656Z,23.72
2019-06-10T09:11:58.635Z,24.18
2019-06-10T09:14:28.579Z,24.35
2019-06-10T09:16:58.582Z,24.06
2019-06-10T09:19:28.561Z,23.84
2019-06-10T09:21:58.549Z,23.72
2019-06-10T09:24:28.439Z,23.38
2019-06-10T09:26:58.445Z,22.86
2019-06-10T09:29:28.338Z,22.58
2019-06-10T09:31:58.331Z,22.53
2019-06-10T09:34:28.137Z,22.30
2019-06-10T09:36:58.107Z,22.53
2019-06-10T09:39:28.091Z,22.31
2019-06-10T09:42:02.894Z,22.80
2019-06-10T09:44:29.651Z,22.72
2019-06-10T09:47:03.251Z,23.08
2019-06-10T09:49:33.585Z,23.20
2019-06-10T09:52:04.817Z,23.48
2019-06-10T09:54:35.089Z,23.43
2019-06-10T09:57:05.102Z,23.36
2019-06-10T09:59:35.194Z,23.65
2019-06-10T10:02:07.069Z,23.50
2019-06-10T10:04:38.407Z,23.37
2019-06-10T10:07:08.955Z,23.68
2019-06-10T10:09:39.061Z,23.80
2019-06-10T10:12:09.094Z,24.19
2019-06-10T10:14:39.024Z,23.75
2019-06-10T10:17:08.982Z,23.90
2019-06-10T10:19:39.277Z,24.32
2019-06-10T10:22:11.668Z,25.06
2019-06-10T10:24:42.957Z,25.19
2019-06-10T10:27:13.478Z,25.94
2019-06-10T10:29:46.893Z,26.67
2019-06-10T10:32:15.312Z,26.41
2019-06-10T10:34:47.092Z,26.58
2019-06-10T10:37:16.884Z,26.34
2019-06-10T10:39:46.784Z,26.28
2019-06-10T10:42:16.750Z,25.98
2019-06-10T10:44:50.964Z,25.98
2019-06-10T10:47:18.161Z,25.84
2019-06-10T10:49:49.098Z,25.56
2019-06-10T10:52:19.056Z,26.00
2019-06-10T10:54:49.430Z,26.77
2019-06-10T10:57:19.379Z,26.76
2019-06-10T10:59:49.535Z,26.18
2019-06-10T11:02:19.618Z,26.19
2019-06-10T11:04:49.712Z,26.75
2019-06-10T11:07:22.290Z,27.05
2019-06-10T11:09:55.129Z,27.24
2019-06-10T11:12:25.450Z,27.55
2019-06-10T11:15:00.478Z,27.47
2019-06-10T11:17:27.275Z,27.80
2019-06-10T11:19:57.733Z,27.69
2019-06-10T11:22:27.663Z,27.17
2019-06-10T11:24:57.832Z,26.54
2019-06-10T11:27:28.817Z,26.41
2019-06-10T11:29:59.215Z,26.60
2019-06-10T11:32:29.228Z,26.91
2019-06-10T11:34:59.142Z,27.51
2019-06-10T11:37:29.061Z,27.74
2019-06-10T11:39:58.895Z,27.71
2019-06-10T11:42:28.892Z,27.81
2019-06-10T11:44:59.885Z,27.80
2019-06-10T11:47:33.008Z,27.29
2019-06-10T11:50:03.596Z,27.44
2019-06-10T11:52:33.709Z,27.37
2019-06-10T11:55:14.834Z,27.49
2019-06-10T11:57:35.409Z,27.24
2019-06-10T12:00:13.966Z,27.58
2019-06-10T12:02:38.986Z,28.03
2019-06-10T12:05:12.828Z,28.35
2019-06-10T12:07:42.760Z,28.53
2019-06-10T12:10:15.441Z,28.80
2019-06-10T12:12:45.426Z,28.85
2019-06-10T12:15:16.000Z,29.00
2019-06-10T12:17:51.061Z,29.04
2019-06-10T12:20:17.854Z,29.04
2019-06-10T12:22:47.803Z,28.36
2019-06-10T12:25:31.548Z,28.75
2019-06-10T12:27:51.233Z,28.11
2019-06-10T12:30:22.448Z,28.22
2019-06-10T12:32:55.360Z,28.26
2019-06-10T12:35:24.149Z,28.63
2019-06-10T12:37:56.591Z,28.86
2019-06-10T12:40:26.034Z,28.68
2019-06-10T12:42:57.957Z,28.49
2019-06-10T12:45:27.727Z,28.53
2019-06-10T12:47:58.758Z,28.43
2019-06-10T12:50:30.181Z,28.54
2019-06-10T12:53:01.411Z,28.88
2019-06-10T12:55:42.817Z,28.51
2019-06-10T12:58:05.973Z,28.21
2019-06-10T13:00:45.259Z,28.27
2019-06-10T13:03:15.849Z,28.47
2019-06-10T13:05:46.971Z,28.53
2019-06-10T13:08:20.249Z,29.02
2019-06-10T13:10:48.555Z,28.96
2019-06-10T13:13:18.538Z,29.61
2019-06-10T13:15:48.452Z,29.69
2019-06-10T13:18:19.483Z,29.27
2019-06-10T13:20:49.668Z,29.12
2019-06-10T13:23:26.707Z,29.23
2019-06-10T13:25:58.104Z,29.45
2019-06-10T13:28:22.894Z,29.44
2019-06-10T13:30:54.425Z,29.32
2019-06-10T13:33:24.606Z,29.66
2019-06-10T13:35:56.829Z,29.85
2019-06-10T13:38:27.630Z,29.33
2019-06-10T13:40:57.962Z,28.92
2019-06-10T13:43:28.869Z,28.96
2019-06-10T13:45:59.959Z,29.10
2019-06-10T13:48:32.096Z,29.37
2019-06-10T13:51:07.196Z,29.46
2019-06-10T13:53:33.843Z,29.56
2019-06-10T13:56:30.024Z,29.27
2019-06-10T13:58:35.511Z,30.07
2019-06-10T14:01:10.080Z,30.44
2019-06-10T14:03:37.083Z,30.88
2019-06-10T14:06:23.456Z,30.65
2019-06-10T14:08:38.707Z,30.77
2019-06-10T14:11:08.615Z,30.44
2019-06-10T14:13:38.452Z,29.62
2019-06-10T14:16:09.590Z,29.27
2019-06-10T14:18:41.892Z,29.52
2019-06-10T14:21:17.435Z,29.29
2019-06-10T14:23:43.016Z,29.37
2019-06-10T14:26:16.959Z,29.66
2019-06-10T14:28:44.687Z,29.79
2019-06-10T14:31:35.530Z,29.47
2019-06-10T14:33:46.215Z,29.60
2019-06-10T14:36:16.868Z,30.05
2019-06-10T14:38:47.104Z,30.30
2019-06-10T14:41:17.022Z,30.57
2019-06-10T14:43:46.929Z,30.26
2019-06-10T14:46:17.651Z,30.03
2019-06-10T14:48:47.769Z,29.87
2019-06-10T14:51:17.859Z,30.33
2019-06-10T14:53:47.917Z,30.58
2019-06-10T14:56:19.693Z,29.92
2019-06-10T14:58:49.490Z,28.80
2019-06-10T15:01:25.071Z,28.32
2019-06-10T15:03:52.282Z,27.51
2019-06-10T15:06:22.725Z,27.44
2019-06-10T15:08:53.438Z,27.36
2019-06-10T15:11:27.289Z,26.85
2019-06-10T15:13:56.214Z,26.80
2019-06-10T15:16:26.179Z,26.75
2019-06-10T15:19:10.963Z,26.53
2019-06-10T15:21:27.694Z,26.46
2019-06-10T15:23:57.671Z,26.26
2019-06-10T15:26:27.488Z,26.09
2019-06-10T15:28:57.463Z,25.97
2019-06-10T15:31:27.542Z,25.72
2019-06-10T15:33:57.370Z,25.66
2019-06-10T15:36:27.233Z,25.49
2019-06-10T15:38:57.119Z,25.14
2019-06-10T15:41:26.946Z,22.46
2019-06-10T15:43:56.934Z,18.68
2019-06-10T15:46:26.831Z,17.09
2019-06-10T15:48:56.810Z,16.68
2019-06-10T15:51:26.724Z,16.54
2019-06-10T15:53:56.560Z,16.51
2019-06-10T15:56:39.886Z,16.41
2019-06-10T15:58:59.167Z,16.29
2019-06-10T16:01:29.021Z,16.22
2019-06-10T16:03:58.862Z,16.52
2019-06-10T16:06:28.848Z,16.58
2019-06-10T16:08:58.758Z,16.65
2019-06-10T16:11:28.754Z,16.88
2019-06-10T16:13:58.609Z,17.21
2019-06-10T16:16:28.570Z,17.18
2019-06-10T16:18:58.395Z,17.45
2019-06-10T16:21:28.292Z,17.47
2019-06-10T16:23:58.273Z,17.65
2019-06-10T16:26:28.370Z,17.85
2019-06-10T16:28:58.547Z,17.98
2019-06-10T16:31:28.382Z,18.13
2019-06-10T16:33:58.286Z,18.09
2019-06-10T16:36:28.271Z,18.20
2019-06-10T16:38:58.236Z,18.31
2019-06-10T16:41:28.323Z,18.45
2019-06-10T16:43:58.280Z,18.23
2019-06-10T16:46:29.104Z,18.34
2019-06-10T16:49:00.066Z,17.98
2019-06-10T16:51:29.989Z,17.83
2019-06-10T16:54:02.273Z,17.84
2019-06-10T16:56:33.541Z,17.92
2019-06-10T16:59:03.588Z,18.12
2019-06-10T17:01:33.861Z,18.26
2019-06-10T17:04:04.185Z,18.09
2019-06-10T17:06:34.699Z,17.98
2019-06-10T17:09:06.440Z,18.02
2019-06-10T17:11:36.983Z,17.99
2019-06-10T17:14:07.798Z,18.19
2019-06-10T17:16:40.545Z,18.30
2019-06-10T17:19:09.827Z,18.25
2019-06-10T17:21:42.045Z,18.16
2019-06-10T17:24:12.817Z,18.17
2019-06-10T17:26:42.983Z,17.93
2019-06-10T17:29:12.951Z,17.95
2019-06-10T17:31:43.513Z,18.05
2019-06-10T17:34:14.011Z,18.17
2019-06-10T17:36:44.122Z,18.34
2019-06-10T17:39:16.040Z,18.17
2019-06-10T17:41:46.413Z,18.86
2019-06-10T17:44:16.316Z,20.06
2019-06-10T17:46:46.951Z,20.97
2019-06-10T17:49:17.755Z,21.52
2019-06-10T17:51:47.669Z,21.82
2019-06-10T17:54:17.692Z,21.96
2019-06-10T17:56:48.748Z,21.74
2019-06-10T17:59:18.761Z,22.16
2019-06-10T18:01:48.702Z,21.11
2019-06-10T18:04:18.547Z,20.70
2019-06-10T18:06:49.526Z,21.06
2019-06-10T18:09:19.419Z,21.51
2019-06-10T18:11:49.388Z,21.65
2019-06-10T18:14:19.228Z,21.67
2019-06-10T18:16:49.149Z,21.35
2019-06-10T18:19:18.974Z,21.11
2019-06-10T18:21:48.931Z,20.38
2019-06-10T18:24:21.443Z,19.97
2019-06-10T18:26:52.753Z,19.72
2019-06-10T18:29:23.040Z,19.25
2019-06-10T18:31:54.178Z,18.83
2019-06-10T18:34:24.091Z,18.43
2019-06-10T18:36:53.919Z,18.34
2019-06-10T18:39:23.758Z,18.50
2019-06-10T18:41:53.656Z,18.53
2019-06-10T18:44:26.434Z,18.44
2019-06-10T18:46:55.190Z,18.53
2019-06-10T18:49:25.134Z,18.57
2019-06-10T18:51:55.111Z,18.51
2019-06-10T18:54:25.087Z,18.37
2019-06-10T18:56:54.980Z,17.85
2019-06-10T18:59:24.916Z,17.80
2019-06-10T19:01:54.833Z,17.79
2019-06-10T19:04:25.003Z,17.68
2019-06-10T19:06:55.826Z,17.87
2019-06-10T19:09:25.830Z,17.71
2019-06-10T19:11:55.736Z,17.84
2019-06-10T19:14:25.729Z,17.83
2019-06-10T19:16:55.657Z,17.88
2019-06-10T19:19:25.613Z,17.89
2019-06-10T19:22:05.133Z,17.95
2019-06-10T19:24:27.103Z,17.95
2019-06-10T19:26:59.045Z,17.94
2019-06-10T19:29:35.062Z,17.90
2019-06-10T19:32:03.369Z,18.00
2019-06-10T19:34:33.322Z,17.92
2019-06-10T19:37:03.456Z,17.78
2019-06-10T19:39:41.302Z,17.74
2019-06-10T19:42:05.199Z,17.92
2019-06-10T19:44:35.805Z,17.68
2019-06-10T19:47:06.748Z,17.76
2019-06-10T19:49:36.796Z,17.67
2019-06-10T19:52:06.785Z,17.48
2019-06-10T19:54:37.034Z,17.33
2019-06-10T19:57:07.090Z,17.36
2019-06-10T19:59:52.651Z,17.44
2019-06-10T20:02:09.067Z,17.40
2019-06-10T20:04:39.815Z,17.42
2019-06-10T20:07:12.660Z,17.41
2019-06-10T20:09:45.104Z,17.21
2019-06-10T20:12:14.176Z,17.28
2019-06-10T20:14:45.186Z,17.29
2019-06-10T20:17:16.005Z,17.01
2019-06-10T20:19:46.101Z,17.03
2019-06-10T20:22:16.210Z,16.94
2019-06-10T20:24:46.848Z,17.06
2019-06-10T20:27:17.127Z,17.12
2019-06-10T20:30:02.407Z,17.15
2019-06-10T20:32:19.032Z,17.16
2019-06-10T20:34:49.816Z,17.05
2019-06-10T20:37:22.550Z,17.03
2019-06-10T20:39:53.920Z,16.99
2019-06-10T20:42:24.015Z,17.01
2019-06-10T20:44:54.183Z,16.93
2019-06-10T20:47:24.341Z,17.15
2019-06-10T20:49:56.117Z,17.04
2019-06-10T20:52:26.388Z,17.02
2019-06-10T20:54:56.461Z,17.07
2019-06-10T20:57:26.598Z,17.01
2019-06-10T20:59:56.718Z,16.97
2019-06-10T21:02:27.767Z,16.91
2019-06-10T21:04:58.062Z,16.87
2019-06-10T21:07:28.990Z,16.88
2019-06-10T21:10:02.847Z,16.92
2019-06-10T21:12:33.043Z,16.88
2019-06-10T21:15:03.124Z,16.91
2019-06-10T21:17:33.399Z,16.85
2019-06-10T21:20:03.577Z,17.20
2019-06-10T21:22:33.715Z,17.04
2019-06-10T21:25:04.114Z,17.19
2019-06-10T21:27:34.288Z,17.35
2019-06-10T21:30:11.311Z,17.58
2019-06-10T21:32:36.375Z,17.56
2019-06-10T21:35:06.859Z,17.46
2019-06-10T21:37:37.987Z,17.32
2019-06-10T21:40:08.262Z,17.33
2019-06-10T21:42:38.345Z,17.43
2019-06-10T21:45:08.552Z,17.46
2019-06-10T21:47:38.652Z,17.25
2019-06-10T21:50:09.609Z,17.03
2019-06-10T21:52:39.755Z,16.99
2019-06-10T21:55:10.105Z,16.97
2019-06-10T21:57:42.597Z,17.11
2019-06-10T22:00:14.880Z,17.24
2019-06-10T22:02:47.146Z,17.45
2019-06-10T22:05:18.303Z,17.62
2019-06-10T22:07:49.601Z,17.71
2019-06-10T22:10:19.786Z,17.58
2019-06-10T22:12:50.765Z,17.35
2019-06-10T22:15:22.604Z,17.19
2019-06-10T22:17:53.374Z,16.98
2019-06-10T22:20:25.078Z,17.12
2019-06-10T22:22:56.406Z,17.28
2019-06-10T22:25:26.678Z,17.36
2019-06-10T22:27:56.719Z,17.24
2019-06-10T22:30:26.847Z,17.26
2019-06-10T22:32:57.958Z,17.05
2019-06-10T22:35:28.364Z,17.03
2019-06-10T22:37:58.275Z,17.00
2019-06-10T22:40:28.462Z,16.59
2019-06-10T22:42:59.537Z,16.30
2019-06-10T22:45:32.130Z,16.03
2019-06-10T22:48:02.993Z,16.04
2019-06-10T22:50:33.306Z,16.45
2019-06-10T22:53:04.075Z,16.65
2019-06-10T22:55:34.358Z,16.58
2019-06-10T22:58:06.195Z,16.57
2019-06-10T23:00:36.267Z,16.81
2019-06-10T23:03:06.595Z,16.85
2019-06-10T23:05:36.659Z,16.61
2019-06-10T23:08:06.798Z,16.46
2019-06-10T23:10:36.874Z,16.66
2019-06-10T23:13:07.016Z,16.43
2019-06-10T23:15:37.111Z,16.31
2019-06-10T23:18:07.305Z,16.30
2019-06-10T23:20:37.416Z,16.21
2019-06-10T23:23:07.555Z,16.34
2019-06-10T23:25:37.638Z,16.52
2019-06-10T23:28:07.795Z,16.60
2019-06-10T23:30:37.914Z,16.52
2019-06-10T23:33:08.045Z,16.47
2019-06-10T23:35:38.160Z,16.41
2019-06-10T23:38:08.532Z,16.33
2019-06-10T23:40:38.611Z,16.09
2019-06-10T23:43:09.848Z,16.12
2019-06-10T23:45:42.038Z,16.03
2019-06-10T23:48:13.361Z,16.18
2019-06-10T23:50:43.889Z,15.85
2019-06-10T23:53:14.197Z,15.95
2019-06-10T23:55:44.315Z,15.86
2019-06-10T23:58:14.633Z,15.93
